Skip Navigation Links Skip Navigation Links

Current Weather

Orange County, Montgomery, N.Y.

For information only: do not use for flight planning or navigation.
Latest weather
Observation time Saturday, June 6, 2020 7:54 PM EDT
Local time Saturday, June 6, 2020 8:18 PM EDT
Flight conditions Visual Meteorological Conditions
Winds
Wind direction North-Northwest (330°)
Wind speed 12 mph
Wind gusting to 21 mph
Visibility 10 mi.
Sky condition
Ceiling unlimited
Sky clear
Temperature 76°F
Dewpoint 44°F
Altimeter 29.77 in.Hg
Pressure change last 3 hours-0.06 in.Hg
Pressure rising more quickly
Precipitation
Precipitation last 3 hours trace
Derived measurements
Relative humidity 32%
Density altitude 1771 ft.
Sea-level pressure 29.77 in.Hg
Climate data
Temperature minimum, last 6 hours 74°F
Temperature maximum, last 6 hours 84°F
Remarks
Fully automated report.
Automated weather observing station with precipitation discriminator.
METAR KMGJ 062354Z AUTO 33010G18KT 10SM CLR 24/07 A2977 RMK AO2 SLP080 60000 T02440067 10289 20233 53020

Settings

Location code

InnerDrive.Weather 4.0.6770.0 Release CLR 4.0.30319.42000
Copyright ©2018 Inner Drive Technology. All rights reserved. Portions Copyright ©1986-2018 David Braverman.

Find weather

Site navigation


Skip Navigation Links

Place info

Page info

PayPal - The safer, easier way to pay online!

Return home.

Copyright ©2020 Inner Drive Technology. Purveyors of fine, hand-crafted computer software. Page printed 2020-06-07T00:18:30 UTC.